createdAt,value
2023-02-09T00:00:39.489Z,70.20
2023-02-09T00:04:21.759Z,69.80
2023-02-09T00:07:51.568Z,68.80
2023-02-09T00:11:42.795Z,75.80
2023-02-09T00:15:11.697Z,79.20
2023-02-09T00:18:39.153Z,79.30
2023-02-09T00:22:06.337Z,77.70
2023-02-09T00:25:33.535Z,72.30
2023-02-09T00:29:01.024Z,75.20
2023-02-09T00:32:28.384Z,81.80
2023-02-09T00:35:55.910Z,100.70
2023-02-09T00:39:23.719Z,104.80
2023-02-09T00:42:50.908Z,102.20
2023-02-09T00:46:18.109Z,95.80
2023-02-09T00:49:45.371Z,93.40
2023-02-09T00:53:12.510Z,93.70
2023-02-09T00:56:41.345Z,86.40
2023-02-09T01:00:10.826Z,75.30
2023-02-09T01:03:38.111Z,73.30
2023-02-09T01:07:05.465Z,73.70
2023-02-09T01:10:32.748Z,70.90
2023-02-09T01:14:12.064Z,73.10
2023-02-09T01:21:10.516Z,67.70
2023-02-09T01:24:38.547Z,74.00
2023-02-09T01:28:05.975Z,73.70
2023-02-09T01:31:41.261Z,68.40
2023-02-09T01:35:12.635Z,64.40
2023-02-09T01:38:39.851Z,67.50
2023-02-09T01:42:12.996Z,67.00
2023-02-09T01:45:47.545Z,70.30
2023-02-09T01:49:17.334Z,64.40
2023-02-09T01:52:50.395Z,59.20
2023-02-09T01:56:27.031Z,72.10
2023-02-09T02:00:02.541Z,73.40
2023-02-09T02:03:41.779Z,71.50
2023-02-09T02:07:18.029Z,68.50
2023-02-09T02:10:45.604Z,68.80
2023-02-09T02:14:35.586Z,70.50
2023-02-09T02:18:31.617Z,73.40
2023-02-09T02:22:37.168Z,69.40
2023-02-09T02:26:35.430Z,68.90
2023-02-09T02:30:43.670Z,70.30
2023-02-09T02:34:25.590Z,67.30
2023-02-09T02:38:01.892Z,72.00
2023-02-09T02:41:59.434Z,72.80
2023-02-09T02:45:38.270Z,73.30
2023-02-09T02:49:11.267Z,71.20
2023-02-09T02:52:45.113Z,70.70
2023-02-09T02:56:20.700Z,65.00
2023-02-09T02:59:54.972Z,62.40
2023-02-09T03:03:27.094Z,56.60
2023-02-09T03:06:54.572Z,60.20
2023-02-09T03:10:34.678Z,64.00
2023-02-09T03:14:14.139Z,62.60
2023-02-09T03:17:48.631Z,68.50
2023-02-09T03:21:21.432Z,57.20
2023-02-09T03:24:54.407Z,63.90
2023-02-09T03:28:28.560Z,64.00
2023-02-09T03:31:56.513Z,58.10
2023-02-09T03:35:25.144Z,61.50
2023-02-09T03:38:52.347Z,65.80
2023-02-09T03:42:19.546Z,60.70
2023-02-09T03:45:46.866Z,62.60
2023-02-09T03:49:15.351Z,58.20
2023-02-09T03:52:53.710Z,55.70
2023-02-09T03:56:25.064Z,54.70
2023-02-09T03:59:52.295Z,58.20
2023-02-09T04:03:19.467Z,56.50
2023-02-09T04:06:46.997Z,60.90
2023-02-09T04:10:25.616Z,54.60
2023-02-09T04:13:52.901Z,62.70
2023-02-09T04:17:20.175Z,62.90
2023-02-09T04:20:47.663Z,66.20
2023-02-09T04:24:15.330Z,65.10
2023-02-09T04:27:42.401Z,61.90
2023-02-09T04:31:10.050Z,62.90
2023-02-09T04:34:37.281Z,62.30
2023-02-09T04:38:06.700Z,69.50
2023-02-09T04:41:34.196Z,68.00
2023-02-09T04:45:04.632Z,60.30
2023-02-09T04:48:32.957Z,58.20
2023-02-09T04:52:00.126Z,61.30
2023-02-09T04:55:27.400Z,65.50
2023-02-09T04:59:14.894Z,59.80
2023-02-09T05:02:42.123Z,62.70
2023-02-09T05:06:09.886Z,58.60
2023-02-09T05:09:40.117Z,62.10
2023-02-09T05:13:10.377Z,55.80
2023-02-09T05:16:39.232Z,58.10
2023-02-09T05:20:12.029Z,55.30
2023-02-09T05:23:39.151Z,60.10
2023-02-09T05:27:06.582Z,53.50
2023-02-09T05:30:34.664Z,55.20
2023-02-09T05:34:02.673Z,54.90
2023-02-09T05:37:29.965Z,50.70
2023-02-09T05:40:57.482Z,50.40
2023-02-09T05:44:24.939Z,53.80
2023-02-09T05:48:12.359Z,47.50
2023-02-09T05:51:39.532Z,50.50
2023-02-09T05:55:07.853Z,46.10
2023-02-09T05:58:34.939Z,47.30
2023-02-09T06:02:02.797Z,46.00
2023-02-09T06:05:30.366Z,44.80
2023-02-09T06:08:57.500Z,41.40
2023-02-09T06:12:24.818Z,47.70
2023-02-09T06:15:52.232Z,47.70
2023-02-09T06:19:21.806Z,41.40
2023-02-09T06:22:48.968Z,45.30
2023-02-09T06:26:17.970Z,44.90
2023-02-09T06:29:47.800Z,44.60
2023-02-09T06:33:15.079Z,44.30
2023-02-09T06:36:42.831Z,47.20
2023-02-09T06:40:11.696Z,89.00
2023-02-09T06:43:39.039Z,47.50
2023-02-09T06:47:06.648Z,48.80
2023-02-09T06:50:34.030Z,49.20
2023-02-09T06:54:01.301Z,51.70
2023-02-09T06:57:29.722Z,54.90
2023-02-09T07:00:56.857Z,53.80
2023-02-09T07:04:24.163Z,50.80
2023-02-09T07:07:51.343Z,51.70
2023-02-09T07:11:20.091Z,52.60
2023-02-09T07:14:47.435Z,51.40
2023-02-09T07:18:14.709Z,51.90
2023-02-09T07:21:42.175Z,48.20
2023-02-09T07:25:10.394Z,46.30
2023-02-09T07:28:38.406Z,45.60
2023-02-09T07:32:06.959Z,47.00
2023-02-09T07:35:34.487Z,44.60
2023-02-09T07:39:01.776Z,43.40
2023-02-09T07:42:29.279Z,43.80
2023-02-09T07:49:28.885Z,40.90
2023-02-09T07:52:57.372Z,43.10
2023-02-09T07:56:24.581Z,38.30
2023-02-09T07:59:51.822Z,40.50
2023-02-09T08:03:21.455Z,39.30
2023-02-09T08:06:49.468Z,38.10
2023-02-09T08:10:16.484Z,36.70
2023-02-09T08:13:44.487Z,36.80
2023-02-09T08:17:24.246Z,36.00
2023-02-09T08:24:21.922Z,35.80
2023-02-09T08:27:49.606Z,39.60
2023-02-09T08:31:19.248Z,36.30
2023-02-09T08:38:12.180Z,37.30
2023-02-09T08:41:39.438Z,36.50
2023-02-09T08:45:08.115Z,34.40
2023-02-09T08:48:36.857Z,34.70
2023-02-09T08:52:04.103Z,37.40
2023-02-09T08:55:31.513Z,34.00
2023-02-09T08:58:58.685Z,35.10
2023-02-09T09:02:25.910Z,35.20
2023-02-09T09:05:56.597Z,34.70
2023-02-09T09:09:23.732Z,33.50
2023-02-09T09:12:52.483Z,36.00
2023-02-09T09:16:21.891Z,33.90
2023-02-09T09:19:52.652Z,34.00
2023-02-09T09:23:21.257Z,35.10
2023-02-09T09:26:48.557Z,33.00
2023-02-09T09:30:16.900Z,34.90
2023-02-09T09:33:45.064Z,34.60
2023-02-09T09:37:12.256Z,33.30
2023-02-09T09:40:42.939Z,31.70
2023-02-09T09:44:17.146Z,32.80
2023-02-09T09:47:45.917Z,34.20
2023-02-09T09:51:21.591Z,31.70
2023-02-09T09:54:48.894Z,31.20
2023-02-09T09:58:25.325Z,31.00
2023-02-09T10:01:54.851Z,31.00
2023-02-09T10:08:54.760Z,29.00
2023-02-09T10:12:39.383Z,30.80
2023-02-09T10:16:18.900Z,30.50
2023-02-09T10:20:09.171Z,30.90
2023-02-09T10:23:45.367Z,30.90
2023-02-09T10:27:29.822Z,31.90
2023-02-09T10:31:00.027Z,31.60
2023-02-09T10:34:33.727Z,30.60
2023-02-09T10:38:04.707Z,30.10
2023-02-09T10:41:35.612Z,33.30
2023-02-09T10:45:15.765Z,31.30
2023-02-09T10:48:47.907Z,34.50
2023-02-09T10:52:23.548Z,30.00
2023-02-09T10:55:51.265Z,28.40
2023-02-09T10:59:23.481Z,28.80
2023-02-09T11:06:21.350Z,26.10
2023-02-09T11:09:53.245Z,27.80
2023-02-09T11:13:26.178Z,28.70
2023-02-09T11:17:18.227Z,25.70
2023-02-09T11:20:51.419Z,23.40
2023-02-09T11:24:42.956Z,25.60
2023-02-09T11:28:28.540Z,26.50
2023-02-09T11:32:10.737Z,25.90
2023-02-09T11:35:48.635Z,26.90
2023-02-09T11:39:21.744Z,26.50
2023-02-09T11:42:55.708Z,28.40
2023-02-09T11:46:25.941Z,28.80
2023-02-09T11:49:55.220Z,27.00
2023-02-09T11:53:29.274Z,28.30
2023-02-09T11:57:02.722Z,26.00
2023-02-09T12:00:47.982Z,26.00
2023-02-09T12:08:03.032Z,24.30
2023-02-09T12:11:38.311Z,22.30
2023-02-09T12:15:14.953Z,18.60
2023-02-09T12:18:44.543Z,20.90
2023-02-09T12:22:46.152Z,20.50
2023-02-09T12:26:37.961Z,18.00
2023-02-09T12:30:29.879Z,25.10
2023-02-09T12:34:29.666Z,18.10
2023-02-09T12:42:17.679Z,16.90
2023-02-09T12:46:17.211Z,19.10
2023-02-09T12:49:45.442Z,18.70
2023-02-09T12:53:45.017Z,21.30
2023-02-09T12:57:48.549Z,23.20
2023-02-09T13:01:17.721Z,19.10
2023-02-09T13:04:55.212Z,18.50
2023-02-09T13:08:37.061Z,17.00
2023-02-09T13:12:12.336Z,18.10
2023-02-09T13:15:53.266Z,14.50
2023-02-09T13:19:54.068Z,15.60
2023-02-09T13:23:30.051Z,17.80
2023-02-09T13:26:59.340Z,18.10
2023-02-09T13:30:32.092Z,19.50
2023-02-09T13:34:04.584Z,19.10
2023-02-09T13:37:43.064Z,19.80
2023-02-09T13:41:23.319Z,20.50
2023-02-09T13:44:54.133Z,21.40
2023-02-09T13:48:27.249Z,22.60
2023-02-09T13:52:13.123Z,23.10
2023-02-09T13:55:42.834Z,20.80
2023-02-09T13:59:13.679Z,19.30
2023-02-09T14:02:44.702Z,19.50
2023-02-09T14:06:18.177Z,17.90
2023-02-09T14:09:51.151Z,21.00
2023-02-09T14:13:30.827Z,21.00
2023-02-09T14:17:25.499Z,17.40
2023-02-09T14:21:04.517Z,16.60
2023-02-09T14:24:44.331Z,17.50
2023-02-09T14:28:17.285Z,22.40
2023-02-09T14:31:47.718Z,21.50
2023-02-09T14:35:24.250Z,18.80
2023-02-09T14:38:51.905Z,22.20
2023-02-09T14:42:20.140Z,23.60
2023-02-09T14:45:49.830Z,24.00
2023-02-09T14:49:17.346Z,23.70
2023-02-09T14:52:47.292Z,19.80
2023-02-09T14:56:23.203Z,20.20
2023-02-09T14:59:50.658Z,20.80
2023-02-09T15:03:17.854Z,21.50
2023-02-09T15:06:48.975Z,22.30
2023-02-09T15:10:28.525Z,22.90
2023-02-09T15:17:28.088Z,22.50
2023-02-09T15:20:55.662Z,24.60
2023-02-09T15:24:22.804Z,25.10
2023-02-09T15:27:52.609Z,22.70
2023-02-09T15:31:20.021Z,24.50
2023-02-09T15:34:51.882Z,23.10
2023-02-09T15:38:19.929Z,26.00
2023-02-09T15:42:05.096Z,30.70
2023-02-09T15:45:50.777Z,27.40
2023-02-09T15:49:17.975Z,26.40
2023-02-09T15:52:45.410Z,25.60
2023-02-09T15:56:14.368Z,25.60
2023-02-09T15:59:42.665Z,27.60
2023-02-09T16:03:16.602Z,26.90
2023-02-09T16:06:53.026Z,26.90
2023-02-09T16:10:25.199Z,27.50
2023-02-09T16:13:52.613Z,26.80
2023-02-09T16:17:19.782Z,27.00
2023-02-09T16:20:51.032Z,24.70
2023-02-09T16:24:23.796Z,33.50
2023-02-09T16:27:52.614Z,35.10
2023-02-09T16:31:20.438Z,31.60
2023-02-09T16:34:48.017Z,28.20
2023-02-09T16:38:20.389Z,32.80
2023-02-09T16:41:49.781Z,30.30
2023-02-09T16:45:18.771Z,34.00
2023-02-09T16:48:48.437Z,41.30
2023-02-09T16:52:20.247Z,71.30
2023-02-09T16:55:50.348Z,44.50
2023-02-09T16:59:17.990Z,34.30
2023-02-09T17:02:49.229Z,37.80
2023-02-09T17:06:21.329Z,36.40
2023-02-09T17:09:48.430Z,32.10
2023-02-09T17:13:17.473Z,29.60
2023-02-09T17:16:49.675Z,28.40
2023-02-09T17:20:22.282Z,25.80
2023-02-09T17:23:51.778Z,32.20
2023-02-09T17:27:19.376Z,29.60
2023-02-09T17:30:49.752Z,26.10
2023-02-09T17:34:18.794Z,24.10
2023-02-09T17:37:46.762Z,27.30
2023-02-09T17:41:18.659Z,26.40
2023-02-09T17:44:46.852Z,28.40
2023-02-09T17:48:15.112Z,23.80
2023-02-09T17:51:46.091Z,23.80
2023-02-09T17:55:21.263Z,22.40
2023-02-09T17:58:48.618Z,24.00
2023-02-09T18:02:19.867Z,23.00
2023-02-09T18:05:50.164Z,27.90
2023-02-09T18:09:17.665Z,28.10
2023-02-09T18:12:45.343Z,27.30
2023-02-09T18:16:13.767Z,27.30
2023-02-09T18:19:42.369Z,27.40
2023-02-09T18:23:09.690Z,30.90
2023-02-09T18:26:37.084Z,30.40
2023-02-09T18:30:04.697Z,26.80
2023-02-09T18:33:31.972Z,24.10
2023-02-09T18:36:59.277Z,25.20
2023-02-09T18:40:27.108Z,23.40
2023-02-09T18:43:54.636Z,26.00
2023-02-09T18:47:22.339Z,21.80
2023-02-09T18:50:49.654Z,23.80
2023-02-09T18:54:16.874Z,24.60
2023-02-09T18:57:44.095Z,23.50
2023-02-09T19:01:14.531Z,23.00
2023-02-09T19:04:42.389Z,25.40
2023-02-09T19:08:10.323Z,26.90
2023-02-09T19:11:37.637Z,28.70
2023-02-09T19:15:05.204Z,24.50
2023-02-09T19:18:34.532Z,25.30
2023-02-09T19:22:01.924Z,25.40
2023-02-09T19:25:31.494Z,26.70
2023-02-09T19:29:00.100Z,24.40
2023-02-09T19:32:28.178Z,24.20
2023-02-09T19:36:02.486Z,26.50
2023-02-09T19:39:32.463Z,27.00
2023-02-09T19:42:59.877Z,23.60
2023-02-09T19:46:27.590Z,25.30
2023-02-09T19:49:54.915Z,24.50
2023-02-09T19:53:22.280Z,21.10
2023-02-09T19:56:49.563Z,21.50
2023-02-09T20:00:19.275Z,19.50
2023-02-09T20:03:48.134Z,21.80
2023-02-09T20:07:15.955Z,20.80
2023-02-09T20:10:44.972Z,23.10
2023-02-09T20:14:12.662Z,25.80
2023-02-09T20:17:39.817Z,26.30
2023-02-09T20:21:09.870Z,24.90
2023-02-09T20:24:37.352Z,32.00
2023-02-09T20:28:04.442Z,30.90
2023-02-09T20:31:35.021Z,29.90
2023-02-09T20:35:02.619Z,27.20
2023-02-09T20:38:29.800Z,24.30
2023-02-09T20:42:17.620Z,23.10
2023-02-09T20:46:02.771Z,34.10
2023-02-09T20:49:37.032Z,29.00
2023-02-09T20:53:04.528Z,40.00
2023-02-09T20:56:32.097Z,44.60
2023-02-09T21:00:00.180Z,46.20
2023-02-09T21:03:27.697Z,43.70
2023-02-09T21:06:55.163Z,34.70
2023-02-09T21:10:23.076Z,27.90
2023-02-09T21:13:50.280Z,32.40
2023-02-09T21:17:17.888Z,32.30
2023-02-09T21:20:45.322Z,36.90
2023-02-09T21:24:12.762Z,29.90
2023-02-09T21:27:39.888Z,37.60
2023-02-09T21:31:12.479Z,31.10
2023-02-09T21:34:39.646Z,25.00
2023-02-09T21:38:07.406Z,24.60
2023-02-09T21:41:52.538Z,24.40
2023-02-09T21:45:20.047Z,28.60
2023-02-09T21:48:47.526Z,27.00
2023-02-09T21:52:14.704Z,26.50
2023-02-09T21:59:10.459Z,24.30
2023-02-09T22:02:38.836Z,24.20
2023-02-09T22:06:07.131Z,21.60
2023-02-09T22:09:34.535Z,22.50
2023-02-09T22:13:08.723Z,23.30
2023-02-09T22:16:36.164Z,24.30
2023-02-09T22:20:03.508Z,23.70
2023-02-09T22:23:30.986Z,23.00
2023-02-09T22:26:59.271Z,24.90
2023-02-09T22:30:26.496Z,23.70
2023-02-09T22:33:58.604Z,23.70
2023-02-09T22:37:25.688Z,21.90
2023-02-09T22:40:52.936Z,19.00
2023-02-09T22:44:20.594Z,23.70
2023-02-09T22:47:47.768Z,21.70
2023-02-09T22:51:18.823Z,21.80
2023-02-09T22:54:46.130Z,22.00
2023-02-09T22:58:13.408Z,22.20
2023-02-09T23:01:41.103Z,23.60
2023-02-09T23:05:09.343Z,23.40
2023-02-09T23:08:37.242Z,21.90
2023-02-09T23:12:05.570Z,22.50
2023-02-09T23:15:32.938Z,25.60
2023-02-09T23:19:04.014Z,22.10
2023-02-09T23:22:31.141Z,23.30
2023-02-09T23:25:58.959Z,21.80
2023-02-09T23:29:26.397Z,22.40
2023-02-09T23:32:53.550Z,22.20
2023-02-09T23:36:24.850Z,25.40
2023-02-09T23:39:52.087Z,23.80
2023-02-09T23:43:19.451Z,23.50
2023-02-09T23:46:46.884Z,24.60
2023-02-09T23:50:14.173Z,22.80
2023-02-09T23:53:49.577Z,22.50
2023-02-09T23:57:18.106Z,26.00
